Time;durP1;ratioP1;P1;durP2;ratioP2;P2;SDS_P1;SDS_P2;PMS_P1;PMS_P2;Temp;Humidity;BMP_temperature;BMP_pressure;BME280_temperature;BME280_humidity;BME280_pressure;Samples;Min_cycle;Max_cycle;Signal;HPM_P1;HPM_P2
2022/08/07 00:01:20;;;;;;;0.85;0.20;;;23.30;83.20;;;;;;4938156;29;20045;-76
2022/08/07 00:03:47;;;;;;;0.00;0.00;;;23.70;83.40;;;;;;4942498;29;20102;-76
2022/08/07 00:06:15;;;;;;;0.10;0.10;;;23.50;80.50;;;;;;4945077;29;20070;-76
2022/08/07 00:08:42;;;;;;;0.57;0.25;;;23.70;82.00;;;;;;4949909;28;20027;-73
2022/08/07 00:11:10;;;;;;;0.10;0.00;;;23.80;81.20;;;;;;4949601;29;20043;-76
2022/08/07 00:13:39;;;;;;;0.10;0.00;;;23.70;81.70;;;;;;4948912;28;20082;-73
2022/08/07 00:16:06;;;;;;;0.00;0.00;;;23.70;80.80;;;;;;4946631;29;20039;-77
2022/08/07 00:18:33;;;;;;;0.70;0.00;;;24.00;78.30;;;;;;4948532;28;20038;-76
2022/08/07 00:21:05;;;;;;;0.10;0.10;;;24.10;81.20;;;;;;4950334;29;20876;-78
2022/08/07 00:23:34;;;;;;;0.47;0.10;;;24.20;78.90;;;;;;4949437;28;20045;-76
2022/08/07 00:26:04;;;;;;;0.10;0.00;;;24.30;79.30;;;;;;4953348;29;20032;-83
2022/08/07 00:28:32;;;;;;;0.52;0.52;;;24.50;76.80;;;;;;4950178;28;20046;-79
2022/08/07 00:31:01;;;;;;;1.17;0.10;;;25.00;77.80;;;;;;4948216;29;20031;-81
2022/08/07 00:33:29;;;;;;;0.40;0.28;;;24.60;78.30;;;;;;4938776;28;21001;-79
2022/08/07 00:35:58;;;;;;;0.22;0.10;;;24.70;76.70;;;;;;4939884;29;20062;-81
2022/08/07 00:38:26;;;;;;;0.25;0.10;;;24.80;76.60;;;;;;4950206;28;20359;-75
2022/08/07 00:40:54;;;;;;;0.20;0.10;;;25.20;76.20;;;;;;4951180;29;20505;-77
2022/08/07 00:43:21;;;;;;;0.32;0.20;;;25.40;76.30;;;;;;4952721;29;20457;-79
2022/08/07 00:45:49;;;;;;;0.80;0.50;;;25.20;76.50;;;;;;4953235;29;20019;-76
2022/08/07 00:48:16;;;;;;;0.90;0.70;;;25.10;76.40;;;;;;4940607;28;20038;-80
2022/08/07 00:50:43;;;;;;;1.00;0.70;;;25.00;74.30;;;;;;4937765;29;20034;-77
2022/08/07 00:53:11;;;;;;;0.98;0.57;;;25.00;74.70;;;;;;4945155;29;20041;-77
2022/08/07 00:55:38;;;;;;;0.95;0.40;;;25.30;76.20;;;;;;4944379;29;20043;-77
2022/08/07 00:58:06;;;;;;;0.73;0.20;;;25.60;77.20;;;;;;4951710;28;20031;-73
2022/08/07 01:00:33;;;;;;;0.17;0.10;;;26.20;74.70;;;;;;4952300;29;20149;-74
2022/08/07 01:03:00;;;;;;;0.15;0.00;;;26.30;73.80;;;;;;4942705;28;20050;-74
2022/08/07 01:05:29;;;;;;;0.25;0.20;;;25.50;74.90;;;;;;4949395;29;20530;-76
2022/08/07 01:07:56;;;;;;;0.10;0.10;;;24.20;75.90;;;;;;4944877;28;20514;-74
2022/08/07 01:10:24;;;;;;;0.90;0.35;;;24.30;76.90;;;;;;4951054;28;20437;-75
2022/08/07 01:12:52;;;;;;;0.15;0.00;;;24.30;75.50;;;;;;4949049;29;20574;-74
2022/08/07 01:15:19;;;;;;;0.00;0.00;;;24.90;75.10;;;;;;4942190;28;20097;-74
2022/08/07 01:17:50;;;;;;;0.00;0.00;;;25.20;72.60;;;;;;4947181;28;20464;-75
2022/08/07 01:20:27;;;;;;;0.00;0.00;;;25.60;74.20;;;;;;4940328;28;20024;-74
2022/08/07 01:22:55;;;;;;;0.00;0.00;;;25.90;74.20;;;;;;4940344;28;20127;-75
2022/08/07 01:25:23;;;;;;;0.00;0.00;;;26.50;74.70;;;;;;4944324;28;20042;-73
2022/08/07 01:27:51;;;;;;;0.90;0.00;;;26.80;72.80;;;;;;4947889;28;20123;-74
2022/08/07 01:30:19;;;;;;;0.08;0.00;;;26.90;72.40;;;;;;4942351;28;20034;-74
2022/08/07 01:32:46;;;;;;;0.00;0.00;;;27.50;72.10;;;;;;4946481;28;20483;-77
2022/08/07 01:35:14;;;;;;;0.03;0.00;;;27.10;72.60;;;;;;4946189;28;20047;-75
2022/08/07 01:37:42;;;;;;;0.13;0.10;;;26.30;72.30;;;;;;4950045;28;20419;-74
2022/08/07 01:40:10;;;;;;;0.38;0.10;;;25.20;73.60;;;;;;4943927;28;20059;-75
2022/08/07 01:42:38;;;;;;;0.00;0.00;;;24.10;74.70;;;;;;4949524;28;20035;-75
2022/08/07 01:45:06;;;;;;;0.32;0.00;;;23.80;75.90;;;;;;4941729;28;20042;-75
2022/08/07 01:47:34;;;;;;;0.08;0.00;;;24.50;75.20;;;;;;4941032;29;20660;-78
2022/08/07 01:50:01;;;;;;;0.00;0.00;;;25.50;74.30;;;;;;4940907;29;20032;-74
2022/08/07 01:52:32;;;;;;;0.00;0.00;;;26.00;72.60;;;;;;4940434;29;20045;-80
2022/08/07 01:55:01;;;;;;;0.10;0.00;;;25.50;73.30;;;;;;4938297;29;20431;-73
2022/08/07 01:57:33;;;;;;;0.00;0.00;;;24.00;73.40;;;;;;4939944;29;20065;-74
2022/08/07 02:00:06;;;;;;;0.17;0.00;;;22.80;75.90;;;;;;4936873;29;20474;-77
2022/08/07 02:02:55;;;;;;;0.52;0.00;;;21.70;78.40;;;;;;4940721;29;20116;-73
2022/08/07 02:05:37;;;;;;;0.10;0.00;;;20.90;79.50;;;;;;4942256;29;20401;-74
2022/08/07 02:08:14;;;;;;;0.10;0.00;;;20.90;79.90;;;;;;4937432;29;20038;-75
2022/08/07 02:10:43;;;;;;;0.03;0.00;;;21.20;80.20;;;;;;4939059;29;20245;-73
2022/08/07 02:13:11;;;;;;;0.00;0.00;;;20.80;80.10;;;;;;4937966;29;20043;-75
2022/08/07 02:15:41;;;;;;;0.00;0.00;;;21.40;81.70;;;;;;4942180;29;20031;-76
2022/08/07 02:18:14;;;;;;;0.10;0.00;;;22.50;79.20;;;;;;4945852;29;20081;-75
2022/08/07 02:20:44;;;;;;;0.35;0.00;;;23.50;77.30;;;;;;4946589;29;20040;-76
2022/08/07 02:23:13;;;;;;;0.10;0.00;;;24.20;75.60;;;;;;4943516;29;20070;-72
2022/08/07 02:25:41;;;;;;;0.13;0.10;;;24.90;75.40;;;;;;4937281;28;20517;-75
2022/08/07 02:28:10;;;;;;;0.03;0.00;;;25.20;72.70;;;;;;4947643;29;20031;-76
2022/08/07 02:30:39;;;;;;;0.00;0.00;;;25.50;71.80;;;;;;4949909;29;20529;-76
2022/08/07 02:33:08;;;;;;;0.20;0.00;;;25.50;73.00;;;;;;4946085;28;20031;-73
2022/08/07 02:35:37;;;;;;;0.10;0.00;;;25.30;73.10;;;;;;4941770;28;20375;-75
2022/08/07 02:38:07;;;;;;;0.00;0.00;;;24.60;74.80;;;;;;4948016;29;20035;-76
2022/08/07 02:40:37;;;;;;;0.00;0.00;;;23.60;75.10;;;;;;4945685;28;20042;-73
2022/08/07 02:43:06;;;;;;;1.33;0.10;;;22.70;77.40;;;;;;4951196;28;20038;-75
2022/08/07 02:45:37;;;;;;;0.00;0.00;;;22.10;78.50;;;;;;4952941;29;20544;-75
2022/08/07 02:48:05;;;;;;;0.00;0.00;;;21.40;77.70;;;;;;4949694;29;20058;-75
2022/08/07 02:50:42;;;;;;;0.10;0.00;;;20.90;79.80;;;;;;4954847;29;20027;-74
2022/08/07 02:53:21;;;;;;;0.17;0.00;;;21.70;80.50;;;;;;4949289;29;20068;-75
2022/08/07 02:55:49;;;;;;;0.10;0.10;;;22.60;79.20;;;;;;4935622;29;20086;-76
2022/08/07 02:58:21;;;;;;;0.10;0.10;;;23.40;76.50;;;;;;4939618;29;20031;-75
2022/08/07 03:00:51;;;;;;;0.10;0.10;;;23.60;76.30;;;;;;4945725;28;20035;-75
2022/08/07 03:03:21;;;;;;;0.35;0.20;;;23.90;75.50;;;;;;4949304;29;20035;-75
2022/08/07 03:05:50;;;;;;;0.00;0.00;;;24.30;75.50;;;;;;4943753;28;20758;-75
2022/08/07 03:08:18;;;;;;;0.00;0.00;;;24.50;76.10;;;;;;4948440;29;20610;-74
2022/08/07 03:10:47;;;;;;;0.10;0.00;;;24.80;75.50;;;;;;4954264;29;20042;-74
2022/08/07 03:13:18;;;;;;;0.00;0.00;;;24.70;76.30;;;;;;4951347;29;20028;-74
2022/08/07 03:15:46;;;;;;;0.10;0.10;;;24.60;73.80;;;;;;4949860;29;20622;-73
2022/08/07 03:18:15;;;;;;;0.90;0.10;;;24.20;72.90;;;;;;4943355;29;20046;-75
2022/08/07 03:20:43;;;;;;;0.00;0.00;;;23.90;72.60;;;;;;4937174;28;20032;-75
2022/08/07 03:23:11;;;;;;;0.13;0.03;;;23.90;74.00;;;;;;4952231;29;20046;-76
2022/08/07 03:25:41;;;;;;;0.10;0.00;;;24.10;74.10;;;;;;4952357;29;20055;-74
2022/08/07 03:28:12;;;;;;;0.00;0.00;;;24.20;73.80;;;;;;4948615;29;20536;-72
2022/08/07 03:30:40;;;;;;;0.10;0.00;;;24.20;73.20;;;;;;4934675;29;20034;-76
2022/08/07 03:33:10;;;;;;;0.28;0.00;;;24.30;73.00;;;;;;4947879;28;20118;-75
2022/08/07 03:35:40;;;;;;;0.10;0.05;;;24.10;73.70;;;;;;4940333;28;20051;-77
2022/08/07 03:38:09;;;;;;;0.30;0.00;;;23.70;74.00;;;;;;4947365;28;20042;-75
2022/08/07 03:40:37;;;;;;;0.00;0.00;;;23.00;75.20;;;;;;4944294;28;20035;-77
2022/08/07 03:43:06;;;;;;;0.00;0.00;;;22.10;77.20;;;;;;4947496;29;20230;-75
2022/08/07 03:45:33;;;;;;;0.20;0.00;;;22.10;77.10;;;;;;4950219;28;20023;-73
2022/08/07 03:48:01;;;;;;;0.00;0.00;;;22.10;77.10;;;;;;4945165;29;20130;-73
2022/08/07 03:50:29;;;;;;;0.00;0.00;;;22.20;77.00;;;;;;4941103;29;20031;-76
2022/08/07 03:53:00;;;;;;;0.00;0.00;;;22.10;77.20;;;;;;4950769;28;20027;-75
2022/08/07 03:55:30;;;;;;;0.00;0.00;;;21.60;76.50;;;;;;4953127;29;20169;-73
2022/08/07 03:57:58;;;;;;;0.73;0.57;;;21.30;77.20;;;;;;4928826;29;20951;-73
2022/08/07 04:00:28;;;;;;;0.20;0.20;;;21.10;77.60;;;;;;4943113;29;20041;-74
2022/08/07 04:02:56;;;;;;;0.10;0.10;;;21.00;77.60;;;;;;4950865;29;20085;-74
2022/08/07 04:05:23;;;;;;;0.10;0.10;;;21.00;77.50;;;;;;4952777;29;20082;-76
2022/08/07 04:07:51;;;;;;;0.40;0.10;;;21.10;78.80;;;;;;4940747;29;20452;-76
2022/08/07 04:10:19;;;;;;;0.13;0.10;;;21.20;78.00;;;;;;4953734;29;20027;-77
2022/08/07 04:12:48;;;;;;;0.10;0.05;;;21.40;76.90;;;;;;4951237;29;20789;-75
2022/08/07 04:15:16;;;;;;;0.20;0.10;;;20.90;78.80;;;;;;4946875;29;20046;-76
2022/08/07 04:17:45;;;;;;;0.10;0.03;;;20.50;79.70;;;;;;4949018;29;20387;-73
2022/08/07 04:20:13;;;;;;;0.10;0.10;;;20.00;81.30;;;;;;4946564;29;20019;-75
2022/08/07 04:22:43;;;;;;;0.20;0.10;;;19.60;82.00;;;;;;4951780;29;20398;-74
2022/08/07 04:25:11;;;;;;;0.15;0.10;;;19.30;82.70;;;;;;4953079;29;20031;-74
2022/08/07 04:27:40;;;;;;;0.00;0.00;;;19.20;84.00;;;;;;4948514;29;20114;-75
2022/08/07 04:30:08;;;;;;;0.00;0.00;;;19.20;84.40;;;;;;4943868;29;20038;-75
2022/08/07 04:32:36;;;;;;;0.20;0.10;;;18.90;84.60;;;;;;4933854;29;20091;-73
2022/08/07 04:35:05;;;;;;;0.00;0.00;;;18.70;84.80;;;;;;4945914;29;20057;-73
2022/08/07 04:37:34;;;;;;;1.50;0.10;;;18.50;84.60;;;;;;4949463;29;20039;-72
2022/08/07 04:40:03;;;;;;;0.10;0.00;;;18.40;85.10;;;;;;4949617;28;20445;-75
2022/08/07 04:42:33;;;;;;;0.03;0.00;;;18.30;85.00;;;;;;4949702;28;20454;-74
2022/08/07 04:45:02;;;;;;;0.00;0.00;;;18.20;84.40;;;;;;4934547;28;20451;-73
2022/08/07 04:47:46;;;;;;;1.35;0.00;;;18.00;84.60;;;;;;4942702;29;20035;-73
2022/08/07 04:50:41;;;;;;;0.00;0.00;;;17.90;84.80;;;;;;4945482;29;20034;-73
2022/08/07 04:53:11;;;;;;;0.15;0.10;;;17.70;84.40;;;;;;4940377;29;20039;-77
2022/08/07 04:55:53;;;;;;;1.88;0.10;;;17.50;85.30;;;;;;4952851;29;20089;-75
2022/08/07 04:58:26;;;;;;;0.10;0.10;;;17.60;86.10;;;;;;4951832;29;20035;-75
2022/08/07 05:01:28;;;;;;;0.00;0.00;;;17.60;86.30;;;;;;4950624;29;20038;-74
2022/08/07 05:04:32;;;;;;;0.00;0.00;;;17.60;85.80;;;;;;4890309;29;20486;-74
2022/08/07 05:07:19;;;;;;;0.00;0.00;;;17.60;86.10;;;;;;4940595;29;20054;-76
2022/08/07 05:10:38;;;;;;;0.10;0.00;;;17.60;85.90;;;;;;4949130;29;20485;-74
2022/08/07 05:13:19;;;;;;;3.70;1.58;;;17.70;85.30;;;;;;4906320;29;20039;-74
2022/08/07 05:15:52;;;;;;;0.38;0.10;;;17.70;86.20;;;;;;4949545;29;20505;-76
2022/08/07 05:18:54;;;;;;;0.90;0.57;;;17.60;86.70;;;;;;4946583;29;20091;-74
2022/08/07 05:21:26;;;;;;;1.40;0.70;;;17.60;87.00;;;;;;4940464;29;20467;-74
2022/08/07 05:24:02;;;;;;;0.40;0.35;;;17.70;87.50;;;;;;4945530;28;20034;-74
2022/08/07 05:26:32;;;;;;;1.90;1.80;;;17.70;87.70;;;;;;4932933;29;20114;-74
2022/08/07 05:29:02;;;;;;;1.45;1.00;;;17.70;87.80;;;;;;4938185;29;20039;-74
2022/08/07 05:31:34;;;;;;;0.60;0.20;;;17.70;87.70;;;;;;4934357;29;20035;-74
2022/08/07 05:34:02;;;;;;;1.15;0.82;;;17.80;88.10;;;;;;4941948;28;20095;-75
2022/08/07 05:36:32;;;;;;;1.85;1.30;;;17.90;87.70;;;;;;4937382;28;20130;-74
2022/08/07 05:39:00;;;;;;;1.52;0.85;;;18.00;86.70;;;;;;4939458;28;20120;-74
2022/08/07 05:41:28;;;;;;;3.65;1.73;;;18.00;86.80;;;;;;4939562;28;20050;-77
2022/08/07 05:43:57;;;;;;;1.00;0.43;;;18.10;86.50;;;;;;4943934;28;20019;-77
2022/08/07 05:46:25;;;;;;;16.15;8.13;;;18.10;86.30;;;;;;4932786;28;20502;-78
2022/08/07 05:48:54;;;;;;;5.32;2.60;;;18.10;84.90;;;;;;4942693;28;20031;-81
2022/08/07 05:51:21;;;;;;;12.50;6.40;;;18.20;84.10;;;;;;4938293;28;20090;-81
2022/08/07 05:53:50;;;;;;;19.58;10.75;;;18.20;84.30;;;;;;4943109;29;20029;-82
2022/08/07 05:56:19;;;;;;;3.63;2.00;;;18.30;84.30;;;;;;4946864;28;20535;-79
2022/08/07 05:58:48;;;;;;;19.10;11.52;;;18.40;84.90;;;;;;4944688;29;20035;-80
2022/08/07 06:01:17;;;;;;;10.38;7.15;;;18.40;85.00;;;;;;4948593;28;20517;-78
2022/08/07 06:03:50;;;;;;;4.30;3.63;;;18.50;83.80;;;;;;4939888;29;20038;-83
2022/08/07 06:06:18;;;;;;;1.88;1.55;;;18.70;83.00;;;;;;4947511;29;20085;-78
2022/08/07 06:08:47;;;;;;;1.83;1.73;;;18.70;82.80;;;;;;4944144;28;20115;-79
2022/08/07 06:11:14;;;;;;;0.20;0.20;;;18.80;82.90;;;;;;4933774;29;20036;-78
2022/08/07 06:13:42;;;;;;;0.52;0.35;;;18.90;84.30;;;;;;4936641;29;20521;-80
2022/08/07 06:16:10;;;;;;;0.00;0.00;;;18.90;84.40;;;;;;4947867;29;20051;-83
2022/08/07 06:18:38;;;;;;;0.10;0.10;;;18.90;84.00;;;;;;4948571;28;20060;-76
2022/08/07 06:21:07;;;;;;;0.15;0.13;;;19.00;84.40;;;;;;4949392;29;20584;-79
2022/08/07 06:23:34;;;;;;;0.08;0.08;;;19.00;84.20;;;;;;4953651;28;20059;-82
2022/08/07 06:26:03;;;;;;;0.20;0.03;;;19.00;84.00;;;;;;4949686;29;20019;-79
2022/08/07 06:28:31;;;;;;;0.20;0.10;;;18.80;84.30;;;;;;4946597;29;20059;-77
2022/08/07 06:30:58;;;;;;;0.10;0.10;;;18.60;83.80;;;;;;4935992;29;20222;-77
2022/08/07 06:33:26;;;;;;;0.20;0.10;;;18.30;84.20;;;;;;4936713;29;20046;-75
2022/08/07 06:35:54;;;;;;;0.68;0.20;;;18.10;84.90;;;;;;4947564;28;20425;-76
2022/08/07 06:38:21;;;;;;;0.13;0.03;;;17.90;85.80;;;;;;4952062;29;20035;-75
2022/08/07 06:40:54;;;;;;;0.03;0.03;;;17.80;85.60;;;;;;4952578;28;20027;-78
2022/08/07 06:43:24;;;;;;;0.20;0.00;;;17.60;85.60;;;;;;4948590;29;20038;-76
2022/08/07 06:45:51;;;;;;;0.30;0.00;;;17.50;85.80;;;;;;4944596;29;20027;-76
2022/08/07 06:48:19;;;;;;;0.00;0.00;;;17.30;86.30;;;;;;4948102;28;20031;-77
2022/08/07 06:50:48;;;;;;;0.15;0.10;;;17.20;87.50;;;;;;4955001;28;20054;-77
2022/08/07 06:53:17;;;;;;;0.10;0.10;;;17.00;87.90;;;;;;4947205;29;20055;-76
2022/08/07 06:55:45;;;;;;;1.50;0.65;;;16.90;88.50;;;;;;4954306;29;20051;-81
2022/08/07 06:58:14;;;;;;;2.15;0.88;;;16.80;88.80;;;;;;4950275;28;20082;-81
2022/08/07 07:00:43;;;;;;;0.80;0.50;;;16.70;90.10;;;;;;4955512;28;20142;-81
2022/08/07 07:03:12;;;;;;;2.72;1.13;;;16.60;91.10;;;;;;4946049;29;20023;-81
2022/08/07 07:05:41;;;;;;;3.63;0.77;;;16.30;92.10;;;;;;4955637;29;20054;-80
2022/08/07 07:08:11;;;;;;;3.10;1.35;;;16.30;92.80;;;;;;4950980;28;20031;-81
2022/08/07 07:10:38;;;;;;;0.95;0.70;;;16.20;93.10;;;;;;4954509;29;20549;-80
2022/08/07 07:13:22;;;;;;;1.67;1.17;;;16.10;93.80;;;;;;4951907;28;20035;-80
2022/08/07 07:15:59;;;;;;;1.55;0.70;;;16.00;94.10;;;;;;4946317;28;20046;-80
2022/08/07 07:18:41;;;;;;;1.05;0.63;;;15.80;94.20;;;;;;4947061;29;20039;-80
2022/08/07 07:21:27;;;;;;;1.50;0.90;;;15.70;94.40;;;;;;4949920;29;20094;-81
2022/08/07 07:23:55;;;;;;;1.92;0.95;;;15.60;94.90;;;;;;4943718;29;20045;-82
2022/08/07 07:26:26;;;;;;;4.22;0.90;;;15.40;95.30;;;;;;4946356;28;20086;-81
2022/08/07 07:28:59;;;;;;;1.73;0.90;;;15.30;95.60;;;;;;4951983;28;20059;-80
2022/08/07 07:31:34;;;;;;;1.92;0.90;;;15.20;95.70;;;;;;4955944;29;20390;-82
2022/08/07 07:34:06;;;;;;;3.78;1.45;;;15.20;95.40;;;;;;4950803;28;20039;-81
2022/08/07 07:36:37;;;;;;;3.22;1.33;;;15.10;95.70;;;;;;4947203;29;20036;-78
2022/08/07 07:39:05;;;;;;;3.42;2.40;;;15.00;95.80;;;;;;4943583;29;20051;-81
2022/08/07 07:41:35;;;;;;;3.75;2.05;;;14.90;95.90;;;;;;4936330;28;20039;-77
2022/08/07 07:44:03;;;;;;;3.67;1.50;;;14.90;96.20;;;;;;4945873;28;20042;-82
2022/08/07 07:46:34;;;;;;;2.33;1.30;;;14.80;96.30;;;;;;4960307;28;20545;-80
2022/08/07 07:49:03;;;;;;;2.22;1.17;;;14.60;96.30;;;;;;4951357;28;20486;-81
2022/08/07 07:51:31;;;;;;;1.15;0.82;;;14.50;96.40;;;;;;4951254;28;20047;-80
2022/08/07 07:54:00;;;;;;;0.85;0.60;;;14.40;96.50;;;;;;4948641;28;20369;-82
2022/08/07 07:56:29;;;;;;;2.25;1.15;;;14.30;96.50;;;;;;4952118;29;20094;-79
2022/08/07 07:58:59;;;;;;;3.13;1.45;;;14.30;96.80;;;;;;4942864;28;20109;-79
2022/08/07 08:01:29;;;;;;;2.17;1.52;;;14.20;97.00;;;;;;4945999;29;20110;-78
2022/08/07 08:04:01;;;;;;;2.63;1.50;;;14.10;97.20;;;;;;4946391;28;20037;-82
2022/08/07 08:06:31;;;;;;;3.22;1.30;;;14.10;97.30;;;;;;4941086;29;20031;-80
2022/08/07 08:09:02;;;;;;;4.07;2.85;;;14.10;97.70;;;;;;4943054;29;20042;-79
2022/08/07 08:11:30;;;;;;;4.82;1.73;;;14.00;97.90;;;;;;4942817;29;20164;-81
2022/08/07 08:13:58;;;;;;;2.90;1.55;;;14.00;98.00;;;;;;4945070;29;20027;-83
2022/08/07 08:16:38;;;;;;;3.95;1.65;;;13.90;98.20;;;;;;4945962;29;20071;-80
2022/08/07 08:19:15;;;;;;;2.80;1.50;;;13.90;98.30;;;;;;4944940;28;20137;-81
2022/08/07 08:27:38;;;;;;;2.75;1.42;;;13.60;99.00;;;;;;4946499;28;20034;-82
2022/08/07 08:30:11;;;;;;;3.38;1.45;;;13.60;99.20;;;;;;4946991;29;20027;-82
2022/08/07 08:32:51;;;;;;;3.33;1.52;;;13.60;99.30;;;;;;4956846;29;20491;-81
2022/08/07 08:35:23;;;;;;;4.10;1.42;;;13.50;99.50;;;;;;4946762;29;20475;-80
2022/08/07 08:37:55;;;;;;;3.97;2.10;;;13.50;99.60;;;;;;4950273;28;20494;-81
2022/08/07 08:40:30;;;;;;;4.95;2.53;;;13.40;99.70;;;;;;4944127;28;20032;-80
2022/08/07 08:43:14;;;;;;;4.40;2.17;;;13.30;99.80;;;;;;4941111;29;20059;-82
2022/08/07 08:46:14;;;;;;;3.33;1.90;;;13.30;99.90;;;;;;4950389;28;20038;-82
2022/08/07 08:49:14;;;;;;;7.90;2.60;;;13.30;99.90;;;;;;4940481;29;20414;-81
2022/08/07 08:51:50;;;;;;;7.38;2.55;;;13.20;99.90;;;;;;4909329;28;20043;-82
2022/08/07 08:54:36;;;;;;;3.08;1.77;;;13.20;99.90;;;;;;4948787;29;20090;-85
2022/08/07 08:57:11;;;;;;;3.88;1.55;;;13.10;99.90;;;;;;4950456;29;20042;-83
2022/08/07 08:59:57;;;;;;;3.92;1.67;;;13.10;99.90;;;;;;4945549;29;20451;-85
2022/08/07 09:02:31;;;;;;;3.05;1.52;;;13.00;99.90;;;;;;4949875;28;20031;-83
2022/08/07 09:05:15;;;;;;;2.45;1.65;;;12.90;99.90;;;;;;4949444;29;20027;-84
2022/08/07 09:07:58;;;;;;;2.33;1.52;;;12.80;99.90;;;;;;4933835;29;20107;-84
2022/08/07 09:10:57;;;;;;;3.55;1.20;;;12.80;99.90;;;;;;4944323;28;20063;-82
2022/08/07 09:13:30;;;;;;;4.28;1.88;;;12.70;99.90;;;;;;4923467;28;20095;-82
2022/08/07 09:16:05;;;;;;;3.78;0.80;;;12.60;99.90;;;;;;4953157;29;20031;-85
2022/08/07 09:18:54;;;;;;;3.83;1.43;;;12.60;99.90;;;;;;4940949;29;20024;-84
2022/08/07 09:21:36;;;;;;;1.75;0.90;;;12.50;99.90;;;;;;4935977;28;20285;-84
2022/08/07 09:24:46;;;;;;;1.75;1.05;;;12.40;99.90;;;;;;4940491;28;20083;-85
2022/08/07 09:27:23;;;;;;;6.03;1.30;;;12.30;99.90;;;;;;4943695;28;20034;-84
2022/08/07 09:30:02;;;;;;;1.27;0.70;;;12.20;99.90;;;;;;4949239;28;20038;-84
2022/08/07 09:32:52;;;;;;;3.97;2.00;;;12.20;99.90;;;;;;4944949;29;20053;-85
2022/08/07 09:35:47;;;;;;;2.00;0.90;;;12.20;99.90;;;;;;4947126;28;20380;-83
2022/08/07 09:38:45;;;;;;;3.50;1.80;;;12.20;99.90;;;;;;4948633;29;20032;-85
2022/08/07 09:41:18;;;;;;;1.05;0.90;;;12.10;99.90;;;;;;4928313;29;20047;-77
2022/08/07 09:44:12;;;;;;;2.25;1.20;;;12.10;99.90;;;;;;4943809;29;20035;-84
2022/08/07 09:47:00;;;;;;;1.92;0.95;;;12.00;99.90;;;;;;4932710;29;20167;-79
2022/08/07 09:49:51;;;;;;;3.22;0.90;;;12.00;99.90;;;;;;4948112;28;20024;-80
2022/08/07 09:52:37;;;;;;;4.22;0.98;;;12.00;99.90;;;;;;4937434;29;20114;-81
2022/08/07 09:55:31;;;;;;;2.08;1.00;;;12.00;99.90;;;;;;4949458;28;20038;-82
2022/08/07 09:58:13;;;;;;;3.20;1.77;;;11.90;99.90;;;;;;4952317;29;20039;-81
2022/08/07 10:00:55;;;;;;;2.75;1.35;;;11.90;99.90;;;;;;4947721;28;20035;-81
2022/08/07 10:03:33;;;;;;;3.15;1.65;;;11.90;99.90;;;;;;4952524;29;20158;-83
2022/08/07 10:06:30;;;;;;;6.80;1.90;;;11.80;99.90;;;;;;4950194;28;20042;-81
2022/08/07 10:09:07;;;;;;;4.20;2.28;;;11.80;99.90;;;;;;4953639;28;20063;-84
2022/08/07 10:12:20;;;;;;;5.40;2.22;;;11.70;99.90;;;;;;4953131;29;20482;-83
2022/08/07 10:15:05;;;;;;;7.60;2.35;;;11.60;99.90;;;;;;4945587;29;20042;-81
2022/08/07 10:17:51;;;;;;;6.13;3.30;;;11.60;99.90;;;;;;4954923;29;20031;-82
2022/08/07 10:20:37;;;;;;;6.38;3.13;;;11.60;99.90;;;;;;4944540;29;20110;-81
2022/08/07 10:23:19;;;;;;;8.20;3.42;;;11.50;99.90;;;;;;4954747;29;20350;-82
2022/08/07 10:26:16;;;;;;;4.00;2.60;;;11.50;99.90;;;;;;4946919;28;20043;-80
2022/08/07 10:28:59;;;;;;;5.28;1.77;;;11.50;99.90;;;;;;4943848;28;20031;-81
2022/08/07 10:32:01;;;;;;;4.80;1.70;;;11.50;99.90;;;;;;4943978;29;20161;-79
2022/08/07 10:35:05;;;;;;;3.22;1.80;;;11.60;99.90;;;;;;4871357;28;20418;-81
2022/08/07 10:38:16;;;;;;;3.50;2.05;;;11.60;99.90;;;;;;4942134;28;20062;-82
2022/08/07 10:41:21;;;;;;;4.28;1.90;;;11.50;99.90;;;;;;4929548;29;20477;-79
2022/08/07 10:44:19;;;;;;;5.55;2.20;;;11.50;99.90;;;;;;4940810;28;20407;-81
2022/08/07 10:46:59;;;;;;;2.38;1.88;;;11.40;99.90;;;;;;4959167;29;20094;-80
2022/08/07 10:49:37;;;;;;;4.28;2.28;;;11.40;99.90;;;;;;4947061;29;20537;-81
2022/08/07 10:52:18;;;;;;;2.95;1.90;;;11.30;99.90;;;;;;4941229;29;20027;-82
2022/08/07 10:55:07;;;;;;;6.22;2.58;;;11.30;99.90;;;;;;4942204;29;20118;-80
2022/08/07 10:58:01;;;;;;;4.40;2.72;;;11.20;99.90;;;;;;4942872;29;20039;-81
2022/08/07 11:00:36;;;;;;;3.85;2.95;;;11.20;99.90;;;;;;4947841;28;20186;-83
2022/08/07 11:03:03;;;;;;;4.72;2.95;;;11.20;99.90;;;;;;4939990;29;20150;-82
2022/08/07 11:06:07;;;;;;;5.05;3.22;;;11.10;99.90;;;;;;4943238;28;20035;-82
2022/08/07 11:08:53;;;;;;;4.70;2.70;;;11.10;99.90;;;;;;4886369;29;20032;-80
2022/08/07 11:11:35;;;;;;;3.77;2.13;;;11.10;99.90;;;;;;4936807;29;20047;-81
2022/08/07 11:14:26;;;;;;;3.95;2.10;;;11.00;99.90;;;;;;4942413;29;20277;-82
2022/08/07 11:17:07;;;;;;;3.30;2.53;;;11.00;99.90;;;;;;4939066;29;20218;-81
2022/08/07 11:20:18;;;;;;;5.05;2.83;;;11.00;99.90;;;;;;4942004;28;20039;-83
2022/08/07 11:23:22;;;;;;;6.35;3.50;;;11.00;99.90;;;;;;4915181;28;20050;-83
2022/08/07 11:26:28;;;;;;;5.25;3.03;;;11.10;99.90;;;;;;4950508;28;20032;-81
2022/08/07 11:29:16;;;;;;;5.13;3.28;;;11.00;99.90;;;;;;4889894;29;20040;-80
2022/08/07 11:32:12;;;;;;;4.78;2.50;;;11.00;99.90;;;;;;4938575;29;21032;-82
2022/08/07 11:34:56;;;;;;;3.97;2.88;;;10.90;99.90;;;;;;4949373;28;20043;-78
2022/08/07 11:37:41;;;;;;;7.85;2.65;;;10.90;99.90;;;;;;4949890;28;20138;-82
2022/08/07 11:40:41;;;;;;;4.33;2.77;;;10.80;99.90;;;;;;4941106;28;20023;-80
2022/08/07 11:43:25;;;;;;;3.55;3.25;;;10.80;99.90;;;;;;4948281;29;20316;-80
2022/08/07 11:46:10;;;;;;;4.00;2.20;;;10.80;99.90;;;;;;4935138;29;20020;-79
2022/08/07 11:49:17;;;;;;;5.70;2.78;;;10.70;99.90;;;;;;4942089;29;20042;-79
2022/08/07 11:52:18;;;;;;;4.72;2.10;;;10.60;99.90;;;;;;4944857;28;20035;-77
2022/08/07 11:55:04;;;;;;;2.65;2.15;;;10.60;99.90;;;;;;4948093;29;20028;-79
2022/08/07 11:57:43;;;;;;;2.70;1.80;;;10.50;99.90;;;;;;4949077;28;20047;-78
2022/08/07 12:00:19;;;;;;;3.40;1.90;;;10.50;99.90;;;;;;4954062;29;20146;-80
2022/08/07 12:03:15;;;;;;;2.20;1.30;;;10.40;99.90;;;;;;4948349;28;20039;-80
2022/08/07 12:06:19;;;;;;;3.22;2.03;;;10.40;99.90;;;;;;4949068;29;20042;-80
2022/08/07 12:08:56;;;;;;;3.90;2.33;;;10.30;99.90;;;;;;4944116;29;20054;-80
2022/08/07 12:11:46;;;;;;;4.22;2.65;;;10.30;99.90;;;;;;4950875;29;20057;-80
2022/08/07 12:14:26;;;;;;;3.85;2.47;;;10.30;99.90;;;;;;4947229;28;20054;-78
2022/08/07 12:17:12;;;;;;;4.85;2.88;;;10.20;99.90;;;;;;4949350;28;20039;-82
2022/08/07 12:20:17;;;;;;;5.90;3.00;;;10.20;99.90;;;;;;4948057;29;20054;-79
2022/08/07 12:23:11;;;;;;;5.22;2.45;;;10.10;99.90;;;;;;4928327;28;20045;-81
2022/08/07 12:25:51;;;;;;;7.25;4.00;;;10.10;99.90;;;;;;4945928;28;20027;-81
2022/08/07 12:28:49;;;;;;;14.38;6.00;;;10.10;99.90;;;;;;4940311;28;20134;-81
2022/08/07 12:31:40;;;;;;;10.48;5.93;;;10.00;99.90;;;;;;4937761;28;20023;-79
2022/08/07 12:34:10;;;;;;;3.85;2.55;;;10.00;99.90;;;;;;4943496;28;20080;-79
2022/08/07 12:36:39;;;;;;;3.75;2.08;;;9.90;99.90;;;;;;4950440;29;20054;-81
2022/08/07 12:39:08;;;;;;;5.18;1.70;;;9.90;99.90;;;;;;4949522;28;20082;-81
2022/08/07 12:41:36;;;;;;;7.80;3.33;;;9.90;99.90;;;;;;4944294;28;20035;-80
2022/08/07 12:44:10;;;;;;;6.63;3.15;;;9.90;99.90;;;;;;4949588;28;20027;-81
2022/08/07 12:47:08;;;;;;;3.88;1.58;;;9.90;99.90;;;;;;4948260;28;20079;-82
2022/08/07 12:49:49;;;;;;;2.25;1.17;;;9.90;99.90;;;;;;4928826;28;20545;-81
2022/08/07 12:52:39;;;;;;;2.85;1.42;;;9.90;99.90;;;;;;4950262;28;20043;-79
2022/08/07 12:55:45;;;;;;;2.58;1.27;;;9.90;99.90;;;;;;4913941;28;20039;-79
2022/08/07 12:58:17;;;;;;;2.87;1.30;;;9.90;99.90;;;;;;4896986;28;20438;-84
2022/08/07 13:01:06;;;;;;;3.08;1.83;;;9.80;99.90;;;;;;4946160;28;20030;-79
2022/08/07 13:03:54;;;;;;;6.00;2.53;;;9.80;99.90;;;;;;4948839;29;20027;-81
2022/08/07 13:06:48;;;;;;;3.63;1.85;;;9.80;99.90;;;;;;4948557;29;20032;-82
2022/08/07 13:10:00;;;;;;;2.50;1.83;;;9.70;99.90;;;;;;4947446;28;20085;-84
2022/08/07 13:12:52;;;;;;;2.35;1.70;;;9.70;99.90;;;;;;4919656;29;20075;-83
2022/08/07 13:15:41;;;;;;;2.00;1.45;;;9.70;99.90;;;;;;4938288;29;20152;-80
2022/08/07 13:18:29;;;;;;;3.45;1.55;;;9.70;99.90;;;;;;4948613;29;20482;-80
2022/08/07 13:21:14;;;;;;;2.70;1.60;;;9.60;99.90;;;;;;4951420;29;20027;-84
2022/08/07 13:23:51;;;;;;;2.15;1.35;;;9.70;99.90;;;;;;4951166;29;20023;-83
2022/08/07 13:26:40;;;;;;;2.03;0.93;;;9.60;99.90;;;;;;4952807;29;20390;-83
2022/08/07 13:29:35;;;;;;;1.40;1.02;;;9.60;99.90;;;;;;4946599;28;20032;-83
2022/08/07 13:32:15;;;;;;;3.25;1.60;;;9.60;99.90;;;;;;4953232;29;20430;-81
2022/08/07 13:35:04;;;;;;;2.90;1.65;;;9.60;99.90;;;;;;4947215;28;20119;-81
2022/08/07 13:37:55;;;;;;;2.97;1.70;;;9.60;99.90;;;;;;4949610;28;20055;-84
2022/08/07 13:40:48;;;;;;;2.22;1.70;;;9.50;99.90;;;;;;4952254;29;20059;-83
2022/08/07 13:43:16;;;;;;;2.35;1.40;;;9.50;99.90;;;;;;4943940;29;20837;-82